Terminal Aerodrome Forecast
Issued by NWS

Home | Current Version | Previous Version | Text Only | Print | Product List | Glossary On
Versions: 1 2 3 4 5 6 7 8 9 10 11 12 13 14 15
000
FTUS42 TJSJ 190500 RRA
TAFJBQ
TAF
TJBQ 190546Z 1906/2006 07007KT P6SM VCSH SCT030 BKN050 OVC100
     FM190930 08006KT P6SM VCSH SCT022 SCT050 BKN100
     FM191450 07014KT P6SM SCT030 SCT070
     FM192300 10007KT P6SM FEW025
      AMD NOT SKED TIL 191100=

USA.gov is the U.S. government's official web portal to all federal, state and local government web resources and services.